createdAt,value
2022-08-21T00:00:52.197Z,80.98
2022-08-21T00:03:20.897Z,81.22
2022-08-21T00:05:50.941Z,80.61
2022-08-21T00:08:19.627Z,80.50
2022-08-21T00:10:48.144Z,80.91
2022-08-21T00:13:18.801Z,81.70
2022-08-21T00:15:46.475Z,81.20
2022-08-21T00:18:14.264Z,81.07
2022-08-21T00:20:42.596Z,82.16
2022-08-21T00:23:10.268Z,81.34
2022-08-21T00:25:38.255Z,80.97
2022-08-21T00:28:07.422Z,81.55
2022-08-21T00:30:35.126Z,81.50
2022-08-21T00:33:03.612Z,81.00
2022-08-21T00:35:34.442Z,81.17
2022-08-21T00:38:01.748Z,81.02
2022-08-21T00:40:45.881Z,80.93
2022-08-21T00:43:17.122Z,81.24
2022-08-21T00:45:45.289Z,80.80
2022-08-21T00:48:12.764Z,81.46
2022-08-21T00:50:45.840Z,81.74
2022-08-21T00:53:14.198Z,82.36
2022-08-21T00:55:42.498Z,81.86
2022-08-21T00:58:12.128Z,81.86
2022-08-21T01:00:41.730Z,82.00
2022-08-21T01:03:12.886Z,81.53
2022-08-21T01:05:42.210Z,81.52
2022-08-21T01:08:10.642Z,81.91
2022-08-21T01:10:38.688Z,82.16
2022-08-21T01:13:07.827Z,82.08
2022-08-21T01:15:36.132Z,82.13
2022-08-21T01:18:06.411Z,82.73
2022-08-21T01:20:34.674Z,82.79
2022-08-21T01:23:03.808Z,82.88
2022-08-21T01:25:30.951Z,82.74
2022-08-21T01:27:59.708Z,83.16
2022-08-21T01:30:29.272Z,83.13
2022-08-21T01:32:57.439Z,83.32
2022-08-21T01:35:24.744Z,84.04
2022-08-21T01:37:51.978Z,83.03
2022-08-21T01:40:20.180Z,83.24
2022-08-21T01:42:47.967Z,83.68
2022-08-21T01:45:15.461Z,83.09
2022-08-21T01:47:44.674Z,82.62
2022-08-21T01:50:15.439Z,82.28
2022-08-21T01:52:42.748Z,81.47
2022-08-21T01:55:11.315Z,81.52
2022-08-21T01:57:38.685Z,81.28
2022-08-21T02:00:09.491Z,81.34
2022-08-21T02:02:36.758Z,81.45
2022-08-21T02:05:05.108Z,82.36
2022-08-21T02:07:44.711Z,81.58
2022-08-21T02:10:15.344Z,80.39
2022-08-21T02:12:42.647Z,79.84
2022-08-21T02:15:10.702Z,80.43
2022-08-21T02:17:48.808Z,81.28
2022-08-21T02:20:25.571Z,80.75
2022-08-21T02:22:53.028Z,80.62
2022-08-21T02:25:21.673Z,80.46
2022-08-21T02:27:49.710Z,80.31
2022-08-21T02:30:34.625Z,80.38
2022-08-21T02:33:01.840Z,80.17
2022-08-21T02:35:29.559Z,79.75
2022-08-21T02:38:02.603Z,79.41
2022-08-21T02:40:33.229Z,80.36
2022-08-21T02:43:01.223Z,79.15
2022-08-21T02:45:29.711Z,79.42
2022-08-21T02:48:00.579Z,78.29
2022-08-21T02:50:37.884Z,78.04
2022-08-21T02:53:07.471Z,77.55
2022-08-21T02:55:36.284Z,78.31
2022-08-21T02:58:05.556Z,79.06
2022-08-21T03:00:34.453Z,77.92
2022-08-21T03:03:01.917Z,77.50
2022-08-21T03:05:32.202Z,78.10
2022-08-21T03:08:01.388Z,77.99
2022-08-21T03:10:28.672Z,78.05
2022-08-21T03:12:56.153Z,78.76
2022-08-21T03:15:26.943Z,77.00
2022-08-21T03:17:55.407Z,76.16
2022-08-21T03:20:25.108Z,75.67
2022-08-21T03:22:53.360Z,75.55
2022-08-21T03:25:22.943Z,76.03
2022-08-21T03:28:13.004Z,75.69
2022-08-21T03:30:42.239Z,76.08
2022-08-21T03:33:13.153Z,76.08
2022-08-21T03:35:43.879Z,75.49
2022-08-21T03:38:13.546Z,75.07
2022-08-21T03:40:41.712Z,75.57
2022-08-21T03:43:10.614Z,76.25
2022-08-21T03:45:38.353Z,75.61
2022-08-21T03:48:07.506Z,75.89
2022-08-21T03:50:41.051Z,76.32
2022-08-21T03:53:16.849Z,76.37
2022-08-21T03:55:46.698Z,75.97
2022-08-21T03:58:16.261Z,76.68
2022-08-21T04:00:48.568Z,76.35
2022-08-21T04:03:16.252Z,76.13
2022-08-21T04:05:46.155Z,76.24
2022-08-21T04:08:14.160Z,76.27
2022-08-21T04:10:42.463Z,76.18
2022-08-21T04:13:10.206Z,76.85
2022-08-21T04:15:37.731Z,76.22
2022-08-21T04:18:05.166Z,76.51
2022-08-21T04:20:32.598Z,76.42
2022-08-21T04:22:59.935Z,78.29
2022-08-21T04:25:27.287Z,78.03
2022-08-21T04:27:55.002Z,78.60
2022-08-21T04:30:28.018Z,76.54
2022-08-21T04:32:57.407Z,75.67
2022-08-21T04:35:25.992Z,76.44
2022-08-21T04:37:53.383Z,75.89
2022-08-21T04:40:22.401Z,75.76
2022-08-21T04:42:50.636Z,75.49
2022-08-21T04:45:24.479Z,75.56
2022-08-21T04:47:53.952Z,75.76
2022-08-21T04:50:23.533Z,75.90
2022-08-21T04:52:50.798Z,75.79
2022-08-21T04:55:19.532Z,75.10
2022-08-21T04:57:49.162Z,75.85
2022-08-21T05:00:19.602Z,75.75
2022-08-21T05:02:50.950Z,75.54
2022-08-21T05:05:18.295Z,76.40
2022-08-21T05:07:46.368Z,76.33
2022-08-21T05:10:14.821Z,76.13
2022-08-21T05:12:43.622Z,75.51
2022-08-21T05:15:13.451Z,74.97
2022-08-21T05:17:42.615Z,75.02
2022-08-21T05:20:14.233Z,75.33
2022-08-21T05:22:41.458Z,75.96
2022-08-21T05:25:10.314Z,74.41
2022-08-21T05:27:39.171Z,75.19
2022-08-21T05:30:08.738Z,74.53
2022-08-21T05:32:36.408Z,74.91
2022-08-21T05:35:08.468Z,74.91
2022-08-21T05:37:36.211Z,75.01
2022-08-21T05:40:22.794Z,75.24
2022-08-21T05:42:55.528Z,74.04
2022-08-21T05:45:26.373Z,74.31
2022-08-21T05:48:13.660Z,73.26
2022-08-21T05:50:41.990Z,73.99
2022-08-21T05:53:10.703Z,75.08
2022-08-21T05:55:42.728Z,75.91
2022-08-21T05:58:12.200Z,74.45
2022-08-21T06:00:39.430Z,73.54
2022-08-21T06:03:13.085Z,73.46
2022-08-21T06:05:40.294Z,73.29
2022-08-21T06:08:07.469Z,72.62
2022-08-21T06:10:34.682Z,72.20
2022-08-21T06:13:01.892Z,72.88
2022-08-21T06:15:29.197Z,72.97
2022-08-21T06:17:56.727Z,72.35
2022-08-21T06:20:24.009Z,72.80
2022-08-21T06:22:51.241Z,72.62
2022-08-21T06:25:19.422Z,73.50
2022-08-21T06:27:47.317Z,72.42
2022-08-21T06:30:15.003Z,73.18
2022-08-21T06:32:42.250Z,72.68
2022-08-21T06:35:09.911Z,73.70
2022-08-21T06:37:37.231Z,71.63
2022-08-21T06:40:05.703Z,73.24
2022-08-21T06:42:40.137Z,71.94
2022-08-21T06:45:10.606Z,72.20
2022-08-21T06:47:37.951Z,70.62
2022-08-21T06:50:08.364Z,71.42
2022-08-21T06:52:37.024Z,71.89
2022-08-21T06:55:06.884Z,70.88
2022-08-21T06:57:34.294Z,69.51
2022-08-21T07:00:01.829Z,67.38
2022-08-21T07:02:29.029Z,67.33
2022-08-21T07:04:56.219Z,64.24
2022-08-21T07:07:23.426Z,63.08
2022-08-21T07:09:50.639Z,65.60
2022-08-21T07:12:18.026Z,62.47
2022-08-21T07:14:45.390Z,61.87
2022-08-21T07:17:12.580Z,61.15
2022-08-21T07:19:39.763Z,61.55
2022-08-21T07:22:07.772Z,61.10
2022-08-21T07:24:34.990Z,60.06
2022-08-21T07:27:05.128Z,61.63
2022-08-21T07:29:34.306Z,58.39
2022-08-21T07:32:01.503Z,61.75
2022-08-21T07:34:28.743Z,60.19
2022-08-21T07:36:55.936Z,60.21
2022-08-21T07:39:23.259Z,58.54
2022-08-21T07:41:50.458Z,57.79
2022-08-21T07:44:17.680Z,54.87
2022-08-21T07:46:44.891Z,51.98
2022-08-21T07:49:12.100Z,54.27
2022-08-21T07:51:39.823Z,49.64
2022-08-21T07:54:11.831Z,50.78
2022-08-21T07:56:44.692Z,49.18
2022-08-21T07:59:12.082Z,50.16
2022-08-21T08:01:39.529Z,52.75
2022-08-21T08:04:06.743Z,52.55
2022-08-21T08:06:33.982Z,50.69
2022-08-21T08:09:04.303Z,53.37
2022-08-21T08:11:31.764Z,55.08
2022-08-21T08:14:00.392Z,53.64
2022-08-21T08:16:27.867Z,52.25
2022-08-21T08:18:56.494Z,52.15
2022-08-21T08:21:23.739Z,53.61
2022-08-21T08:23:51.149Z,53.13
2022-08-21T08:26:18.329Z,54.91
2022-08-21T08:28:47.557Z,54.12
2022-08-21T08:31:14.996Z,53.64
2022-08-21T08:33:42.368Z,55.13
2022-08-21T08:36:18.415Z,57.19
2022-08-21T08:42:41.951Z,51.35
2022-08-21T08:45:13.599Z,52.08
2022-08-21T08:47:45.465Z,51.03
2022-08-21T08:50:21.132Z,54.68
2022-08-21T08:52:58.574Z,49.83
2022-08-21T08:55:36.152Z,51.19
2022-08-21T08:58:03.968Z,49.63
2022-08-21T09:00:32.019Z,50.75
2022-08-21T09:03:01.679Z,49.18
2022-08-21T09:05:59.605Z,48.55
2022-08-21T09:08:54.441Z,49.67
2022-08-21T09:11:42.620Z,50.98
2022-08-21T09:14:18.532Z,49.80
2022-08-21T09:16:57.980Z,50.86
2022-08-21T09:20:07.483Z,51.29
2022-08-21T09:22:45.131Z,51.39
2022-08-21T09:25:19.227Z,50.34
2022-08-21T09:27:46.418Z,51.34
2022-08-21T09:30:14.084Z,50.94
2022-08-21T09:32:42.300Z,50.53
2022-08-21T09:35:20.845Z,51.98
2022-08-21T09:38:00.513Z,51.55
2022-08-21T09:40:37.235Z,52.69
2022-08-21T09:43:13.333Z,54.54
2022-08-21T09:45:45.995Z,49.84
2022-08-21T09:48:14.719Z,49.43
2022-08-21T09:50:43.224Z,47.99
2022-08-21T09:53:26.091Z,51.26
2022-08-21T09:56:24.250Z,47.51
2022-08-21T09:58:52.928Z,48.64
2022-08-21T10:01:26.046Z,48.36
2022-08-21T10:04:09.912Z,48.00
2022-08-21T10:06:37.352Z,48.54
2022-08-21T10:09:19.047Z,48.16
2022-08-21T10:12:07.116Z,47.44
2022-08-21T10:14:53.520Z,48.20
2022-08-21T10:17:51.796Z,47.58
2022-08-21T10:20:23.875Z,47.75
2022-08-21T10:23:20.042Z,48.74
2022-08-21T10:26:13.834Z,48.87
2022-08-21T10:29:00.856Z,47.23
2022-08-21T10:31:51.278Z,46.87
2022-08-21T10:34:28.281Z,46.63
2022-08-21T10:37:22.714Z,46.12
2022-08-21T10:40:04.978Z,49.27
2022-08-21T10:42:43.059Z,45.79
2022-08-21T10:45:16.204Z,44.73
2022-08-21T10:47:50.116Z,49.64
2022-08-21T10:50:51.760Z,47.76
2022-08-21T10:53:34.437Z,47.14
2022-08-21T10:56:13.751Z,48.02
2022-08-21T10:58:59.233Z,43.94
2022-08-21T11:01:29.527Z,42.37
2022-08-21T11:04:10.234Z,43.74
2022-08-21T11:06:40.285Z,43.58
2022-08-21T11:09:15.221Z,42.32
2022-08-21T11:12:11.430Z,41.93
2022-08-21T11:15:02.912Z,43.85
2022-08-21T11:17:44.991Z,43.38
2022-08-21T11:20:37.700Z,43.71
2022-08-21T11:23:12.371Z,41.87
2022-08-21T11:25:46.211Z,42.51
2022-08-21T11:28:21.728Z,41.50
2022-08-21T11:31:13.380Z,42.39
2022-08-21T11:33:59.689Z,41.68
2022-08-21T11:36:31.943Z,44.61
2022-08-21T11:39:09.850Z,43.11
2022-08-21T11:41:42.095Z,42.24
2022-08-21T11:44:22.516Z,41.53
2022-08-21T11:47:16.744Z,42.28
2022-08-21T11:49:57.423Z,41.77
2022-08-21T11:52:32.235Z,43.91
2022-08-21T11:55:07.414Z,42.39
2022-08-21T11:57:41.136Z,43.04
2022-08-21T12:00:21.629Z,43.97
2022-08-21T12:02:56.840Z,43.37
2022-08-21T12:05:31.499Z,44.17
2022-08-21T12:08:05.448Z,43.57
2022-08-21T12:10:48.569Z,43.90
2022-08-21T12:13:40.726Z,45.03
2022-08-21T12:16:15.690Z,44.12
2022-08-21T12:18:43.941Z,42.84
2022-08-21T12:21:27.581Z,43.83
2022-08-21T12:24:19.937Z,42.75
2022-08-21T12:27:15.094Z,42.74
2022-08-21T12:29:48.204Z,43.15
2022-08-21T12:32:15.303Z,44.48
2022-08-21T12:34:51.882Z,44.34
2022-08-21T12:37:44.440Z,43.35
2022-08-21T12:40:33.430Z,44.93
2022-08-21T12:43:02.805Z,43.91
2022-08-21T12:45:35.640Z,42.46
2022-08-21T12:48:12.328Z,44.29
2022-08-21T12:50:57.524Z,44.77
2022-08-21T12:53:44.891Z,43.25
2022-08-21T12:56:15.570Z,42.68
2022-08-21T12:58:55.106Z,42.69
2022-08-21T13:01:41.916Z,44.58
2022-08-21T13:04:14.506Z,42.91
2022-08-21T13:06:44.653Z,42.99
2022-08-21T13:09:14.242Z,42.49
2022-08-21T13:11:43.749Z,43.85
2022-08-21T13:14:38.385Z,43.09
2022-08-21T13:17:13.813Z,44.41
2022-08-21T13:20:07.563Z,42.37
2022-08-21T13:22:41.836Z,45.37
2022-08-21T13:25:13.029Z,42.39
2022-08-21T13:27:40.634Z,44.62
2022-08-21T13:30:15.443Z,44.46
2022-08-21T13:32:49.573Z,43.01
2022-08-21T13:35:27.686Z,43.16
2022-08-21T13:37:56.416Z,44.12
2022-08-21T13:40:33.951Z,44.48
2022-08-21T13:43:02.229Z,46.10
2022-08-21T13:45:33.328Z,43.79
2022-08-21T13:48:06.042Z,43.85
2022-08-21T13:50:42.669Z,46.33
2022-08-21T13:53:30.024Z,45.08
2022-08-21T13:56:00.785Z,46.70
2022-08-21T13:58:42.956Z,45.24
2022-08-21T14:01:24.462Z,44.74
2022-08-21T14:03:55.439Z,45.88
2022-08-21T14:06:25.258Z,45.38
2022-08-21T14:09:11.594Z,45.60
2022-08-21T14:11:39.469Z,45.29
2022-08-21T14:14:36.533Z,46.41
2022-08-21T14:17:11.171Z,45.56
2022-08-21T14:19:52.303Z,45.07
2022-08-21T14:22:33.499Z,45.91
2022-08-21T14:25:06.858Z,46.45
2022-08-21T14:27:38.462Z,45.80
2022-08-21T14:30:20.958Z,46.40
2022-08-21T14:32:48.593Z,48.00
2022-08-21T14:35:18.679Z,45.47
2022-08-21T14:37:51.430Z,45.90
2022-08-21T14:40:20.071Z,46.08
2022-08-21T14:42:47.471Z,45.65
2022-08-21T14:45:27.609Z,46.13
2022-08-21T14:47:55.732Z,45.81
2022-08-21T14:50:23.485Z,46.03
2022-08-21T14:52:55.679Z,45.92
2022-08-21T14:55:23.577Z,45.81
2022-08-21T14:57:53.302Z,46.06
2022-08-21T15:00:35.446Z,48.06
2022-08-21T15:03:03.626Z,45.72
2022-08-21T15:05:33.677Z,46.60
2022-08-21T15:08:01.475Z,47.66
2022-08-21T15:10:29.023Z,47.76
2022-08-21T15:12:56.885Z,45.45
2022-08-21T15:15:24.331Z,45.26
2022-08-21T15:17:51.752Z,45.58
2022-08-21T15:20:19.281Z,45.29
2022-08-21T15:22:47.757Z,45.80
2022-08-21T15:25:15.671Z,45.95
2022-08-21T15:27:42.921Z,46.46
2022-08-21T15:30:10.951Z,47.13
2022-08-21T15:32:39.083Z,46.05
2022-08-21T15:35:06.649Z,46.38
2022-08-21T15:37:33.946Z,46.74
2022-08-21T15:40:01.544Z,46.43
2022-08-21T15:42:29.268Z,46.27
2022-08-21T15:44:57.707Z,45.29
2022-08-21T15:47:30.398Z,46.44
2022-08-21T15:49:57.611Z,46.74
2022-08-21T15:52:25.150Z,45.61
2022-08-21T15:54:52.793Z,46.69
2022-08-21T15:57:23.395Z,45.82
2022-08-21T15:59:59.307Z,45.86
2022-08-21T16:02:29.110Z,46.09
2022-08-21T16:04:57.401Z,46.83
2022-08-21T16:07:25.164Z,46.24
2022-08-21T16:09:52.479Z,46.26
2022-08-21T16:12:31.600Z,46.33
2022-08-21T16:14:59.730Z,45.48
2022-08-21T16:17:29.940Z,45.26
2022-08-21T16:19:57.872Z,45.64
2022-08-21T16:22:25.365Z,45.27
2022-08-21T16:25:08.134Z,46.03
2022-08-21T16:27:36.607Z,45.60
2022-08-21T16:30:07.032Z,45.98
2022-08-21T16:32:35.413Z,45.63
2022-08-21T16:35:04.300Z,46.32
2022-08-21T16:37:32.680Z,45.74
2022-08-21T16:39:59.933Z,45.55
2022-08-21T16:42:27.699Z,45.26
2022-08-21T16:44:56.441Z,45.24
2022-08-21T16:47:26.386Z,45.83
2022-08-21T16:49:54.706Z,46.06
2022-08-21T16:52:21.915Z,46.39
2022-08-21T16:54:49.140Z,46.30
2022-08-21T16:57:16.603Z,46.00
2022-08-21T16:59:43.795Z,45.90
2022-08-21T17:02:32.338Z,46.31
2022-08-21T17:05:01.152Z,46.65
2022-08-21T17:07:28.674Z,47.50
2022-08-21T17:09:56.091Z,47.10
2022-08-21T17:12:23.883Z,46.57
2022-08-21T17:14:51.456Z,46.97
2022-08-21T17:17:18.926Z,47.35
2022-08-21T17:19:46.433Z,46.17
2022-08-21T17:22:13.867Z,47.07
2022-08-21T17:24:41.080Z,46.74
2022-08-21T17:27:08.520Z,46.82
2022-08-21T17:29:38.842Z,46.52
2022-08-21T17:32:11.164Z,46.97
2022-08-21T17:34:39.029Z,46.89
2022-08-21T17:37:07.088Z,46.94
2022-08-21T17:39:34.687Z,47.24
2022-08-21T17:42:05.469Z,47.74
2022-08-21T17:44:33.255Z,48.30
2022-08-21T17:47:01.021Z,48.17
2022-08-21T17:49:28.262Z,48.65
2022-08-21T17:51:55.662Z,47.98
2022-08-21T17:54:22.850Z,48.54
2022-08-21T17:56:50.832Z,48.31
2022-08-21T17:59:18.443Z,48.80
2022-08-21T18:01:48.067Z,48.65
2022-08-21T18:04:16.526Z,49.15
2022-08-21T18:06:44.611Z,48.68
2022-08-21T18:09:12.799Z,49.04
2022-08-21T18:11:42.158Z,49.05
2022-08-21T18:14:09.832Z,49.41
2022-08-21T18:16:37.839Z,50.40
2022-08-21T18:19:09.689Z,50.06
2022-08-21T18:21:37.215Z,50.45
2022-08-21T18:24:04.709Z,51.45
2022-08-21T18:26:37.404Z,51.21
2022-08-21T18:29:08.458Z,51.78
2022-08-21T18:31:37.220Z,52.03
2022-08-21T18:34:21.376Z,52.89
2022-08-21T18:36:49.035Z,53.34
2022-08-21T18:39:35.433Z,52.76
2022-08-21T18:42:08.161Z,53.38
2022-08-21T18:44:35.478Z,54.49
2022-08-21T18:47:11.567Z,54.74
2022-08-21T18:49:39.499Z,55.24
2022-08-21T18:52:09.807Z,55.62
2022-08-21T18:54:37.432Z,56.00
2022-08-21T18:57:10.255Z,56.52
2022-08-21T18:59:37.974Z,56.43
2022-08-21T19:02:08.129Z,57.25
2022-08-21T19:07:24.280Z,57.94
2022-08-21T19:10:20.989Z,58.40
2022-08-21T19:12:42.115Z,58.20
2022-08-21T19:15:15.647Z,58.60
2022-08-21T19:17:44.282Z,58.72
2022-08-21T19:23:02.818Z,60.00
2022-08-21T19:25:33.460Z,60.20
2022-08-21T19:28:11.662Z,60.27
2022-08-21T19:30:45.886Z,60.43
2022-08-21T19:33:23.727Z,60.59
2022-08-21T19:35:52.717Z,61.02
2022-08-21T19:38:20.265Z,61.44
2022-08-21T19:40:48.200Z,61.07
2022-08-21T19:43:15.458Z,61.78
2022-08-21T19:45:49.830Z,61.81
2022-08-21T19:48:19.441Z,62.19
2022-08-21T19:50:46.904Z,62.56
2022-08-21T19:53:14.334Z,63.16
2022-08-21T19:55:46.117Z,63.54
2022-08-21T19:58:38.967Z,64.22
2022-08-21T20:01:11.605Z,64.55
2022-08-21T20:06:34.780Z,65.36
2022-08-21T20:09:02.040Z,66.31
2022-08-21T20:11:41.243Z,66.88
2022-08-21T20:14:09.686Z,66.67
2022-08-21T20:16:37.865Z,66.60
2022-08-21T20:19:08.949Z,67.00
2022-08-21T20:21:44.300Z,66.77
2022-08-21T20:27:01.954Z,67.63
2022-08-21T20:29:37.269Z,67.89
2022-08-21T20:32:22.238Z,68.10
2022-08-21T20:34:50.289Z,68.37
2022-08-21T20:37:35.710Z,68.06
2022-08-21T20:40:10.274Z,67.92
2022-08-21T20:42:44.727Z,68.06
2022-08-21T20:45:14.177Z,68.09
2022-08-21T20:47:46.087Z,68.34
2022-08-21T20:50:17.034Z,68.58
2022-08-21T20:52:48.012Z,68.82
2022-08-21T20:55:16.975Z,69.09
2022-08-21T20:58:12.561Z,69.06
2022-08-21T21:00:43.195Z,70.18
2022-08-21T21:03:26.396Z,70.31
2022-08-21T21:06:08.332Z,70.89
2022-08-21T21:08:46.662Z,71.27
2022-08-21T21:11:21.550Z,71.44
2022-08-21T21:14:16.697Z,71.17
2022-08-21T21:16:51.047Z,71.97
2022-08-21T21:19:37.262Z,72.13
2022-08-21T21:22:29.541Z,71.98
2022-08-21T21:25:17.872Z,72.10
2022-08-21T21:27:48.963Z,72.72
2022-08-21T21:30:38.648Z,72.76
2022-08-21T21:33:06.031Z,72.23
2022-08-21T21:38:53.390Z,75.06
2022-08-21T21:41:35.227Z,74.14
2022-08-21T21:44:12.053Z,74.13
2022-08-21T21:47:08.466Z,74.07
2022-08-21T21:49:59.820Z,74.54
2022-08-21T21:53:05.092Z,73.97
2022-08-21T21:55:50.004Z,76.16
2022-08-21T21:58:17.166Z,77.74
2022-08-21T22:00:52.262Z,76.25
2022-08-21T22:03:37.036Z,76.73
2022-08-21T22:06:10.482Z,77.19
2022-08-21T22:08:55.303Z,76.29
2022-08-21T22:14:43.802Z,75.92
2022-08-21T22:17:32.797Z,76.13
2022-08-21T22:20:25.640Z,75.91
2022-08-21T22:22:53.196Z,75.63
2022-08-21T22:25:30.633Z,75.23
2022-08-21T22:28:10.479Z,75.98
2022-08-21T22:31:18.147Z,76.47
2022-08-21T22:34:18.105Z,75.14
2022-08-21T22:39:43.747Z,76.92
2022-08-21T22:42:23.570Z,76.93
2022-08-21T22:44:58.507Z,77.48
2022-08-21T22:47:33.637Z,77.77
2022-08-21T22:50:08.119Z,77.94
2022-08-21T22:52:38.180Z,77.97
2022-08-21T22:55:25.364Z,78.67
2022-08-21T22:58:10.115Z,78.66
2022-08-21T23:00:45.788Z,78.14
2022-08-21T23:03:32.637Z,77.51
2022-08-21T23:06:03.127Z,77.46
2022-08-21T23:08:40.210Z,78.41
2022-08-21T23:11:20.832Z,78.73
2022-08-21T23:13:52.593Z,78.82
2022-08-21T23:16:19.667Z,78.01
2022-08-21T23:19:26.628Z,78.16
2022-08-21T23:22:21.870Z,78.74
2022-08-21T23:25:24.535Z,77.63
2022-08-21T23:28:15.977Z,77.28
2022-08-21T23:31:10.143Z,77.10
2022-08-21T23:34:15.916Z,76.72
2022-08-21T23:43:45.015Z,76.41
2022-08-21T23:46:33.682Z,78.13
2022-08-21T23:53:12.268Z,77.69
2022-08-21T23:55:56.071Z,77.43
2022-08-21T23:58:32.381Z,77.87
